sensor_id;sensor_type;location;lat;lon;timestamp;P1;durP1;ratioP1;P2;durP2;ratioP2
9445;SDS011;4761;49.490;10.908;2024-03-08T00:01:59;10.90;;;9.40;;
9445;SDS011;4761;49.490;10.908;2024-03-08T00:04:25;10.53;;;9.43;;
9445;SDS011;4761;49.490;10.908;2024-03-08T00:06:50;10.50;;;9.40;;
9445;SDS011;4761;49.490;10.908;2024-03-08T00:09:16;11.97;;;9.83;;
9445;SDS011;4761;49.490;10.908;2024-03-08T00:11:41;11.20;;;10.03;;
9445;SDS011;4761;49.490;10.908;2024-03-08T00:14:07;10.40;;;9.23;;
9445;SDS011;4761;49.490;10.908;2024-03-08T00:16:33;10.63;;;9.13;;
9445;SDS011;4761;49.490;10.908;2024-03-08T00:18:59;11.90;;;9.20;;
9445;SDS011;4761;49.490;10.908;2024-03-08T00:21:24;10.93;;;9.73;;
9445;SDS011;4761;49.490;10.908;2024-03-08T00:23:51;11.10;;;9.90;;
9445;SDS011;4761;49.490;10.908;2024-03-08T00:26:19;9.53;;;8.63;;
9445;SDS011;4761;49.490;10.908;2024-03-08T00:28:44;11.77;;;9.40;;
9445;SDS011;4761;49.490;10.908;2024-03-08T00:31:10;11.37;;;9.90;;
9445;SDS011;4761;49.490;10.908;2024-03-08T00:33:35;12.70;;;9.70;;
9445;SDS011;4761;49.490;10.908;2024-03-08T00:36:01;11.47;;;10.20;;
9445;SDS011;4761;49.490;10.908;2024-03-08T00:38:27;10.87;;;9.03;;
9445;SDS011;4761;49.490;10.908;2024-03-08T00:40:53;10.17;;;9.17;;
9445;SDS011;4761;49.490;10.908;2024-03-08T00:43:18;10.77;;;9.33;;
9445;SDS011;4761;49.490;10.908;2024-03-08T00:45:44;10.13;;;9.13;;
9445;SDS011;4761;49.490;10.908;2024-03-08T00:48:09;10.73;;;9.40;;
9445;SDS011;4761;49.490;10.908;2024-03-08T00:50:36;11.03;;;9.87;;
9445;SDS011;4761;49.490;10.908;2024-03-08T00:53:01;11.63;;;9.77;;
9445;SDS011;4761;49.490;10.908;2024-03-08T00:55:27;11.40;;;9.67;;
9445;SDS011;4761;49.490;10.908;2024-03-08T00:57:54;10.80;;;9.70;;
9445;SDS011;4761;49.490;10.908;2024-03-08T01:00:20;11.07;;;9.77;;
9445;SDS011;4761;49.490;10.908;2024-03-08T01:02:46;9.83;;;8.83;;
9445;SDS011;4761;49.490;10.908;2024-03-08T01:05:13;10.40;;;9.20;;
9445;SDS011;4761;49.490;10.908;2024-03-08T01:07:39;11.17;;;9.77;;
9445;SDS011;4761;49.490;10.908;2024-03-08T01:10:04;9.80;;;8.80;;
9445;SDS011;4761;49.490;10.908;2024-03-08T01:12:34;10.67;;;9.57;;
9445;SDS011;4761;49.490;10.908;2024-03-08T01:15:00;9.60;;;8.60;;
9445;SDS011;4761;49.490;10.908;2024-03-08T01:17:25;11.00;;;9.80;;
9445;SDS011;4761;49.490;10.908;2024-03-08T01:19:51;10.50;;;9.40;;
9445;SDS011;4761;49.490;10.908;2024-03-08T01:22:18;12.00;;;9.73;;
9445;SDS011;4761;49.490;10.908;2024-03-08T01:24:44;11.67;;;9.37;;
9445;SDS011;4761;49.490;10.908;2024-03-08T01:27:09;11.33;;;9.93;;
9445;SDS011;4761;49.490;10.908;2024-03-08T01:29:35;11.07;;;9.83;;
9445;SDS011;4761;49.490;10.908;2024-03-08T01:32:00;10.77;;;9.67;;
9445;SDS011;4761;49.490;10.908;2024-03-08T01:34:28;10.43;;;9.30;;
9445;SDS011;4761;49.490;10.908;2024-03-08T01:36:54;12.20;;;9.40;;
9445;SDS011;4761;49.490;10.908;2024-03-08T01:39:23;10.70;;;9.60;;
9445;SDS011;4761;49.490;10.908;2024-03-08T01:41:49;10.70;;;9.40;;
9445;SDS011;4761;49.490;10.908;2024-03-08T01:44:14;10.75;;;9.65;;
9445;SDS011;4761;49.490;10.908;2024-03-08T01:46:43;11.63;;;10.23;;
9445;SDS011;4761;49.490;10.908;2024-03-08T01:49:10;10.43;;;9.30;;
9445;SDS011;4761;49.490;10.908;2024-03-08T01:51:36;11.00;;;9.80;;
9445;SDS011;4761;49.490;10.908;2024-03-08T01:54:03;10.30;;;9.30;;
9445;SDS011;4761;49.490;10.908;2024-03-08T01:56:29;11.17;;;9.63;;
9445;SDS011;4761;49.490;10.908;2024-03-08T01:58:56;11.30;;;10.10;;
9445;SDS011;4761;49.490;10.908;2024-03-08T02:01:24;10.63;;;9.30;;
9445;SDS011;4761;49.490;10.908;2024-03-08T02:03:50;11.65;;;9.90;;
9445;SDS011;4761;49.490;10.908;2024-03-08T02:06:15;10.17;;;8.87;;
9445;SDS011;4761;49.490;10.908;2024-03-08T02:08:42;10.00;;;9.00;;
9445;SDS011;4761;49.490;10.908;2024-03-08T02:11:12;10.17;;;9.20;;
9445;SDS011;4761;49.490;10.908;2024-03-08T02:13:38;11.40;;;9.43;;
9445;SDS011;4761;49.490;10.908;2024-03-08T02:16:03;11.43;;;9.23;;
9445;SDS011;4761;49.490;10.908;2024-03-08T02:18:32;10.63;;;9.20;;
9445;SDS011;4761;49.490;10.908;2024-03-08T02:21:00;11.43;;;9.07;;
9445;SDS011;4761;49.490;10.908;2024-03-08T02:23:27;10.47;;;9.37;;
9445;SDS011;4761;49.490;10.908;2024-03-08T02:25:54;9.77;;;8.77;;
9445;SDS011;4761;49.490;10.908;2024-03-08T02:28:21;10.63;;;9.53;;
9445;SDS011;4761;49.490;10.908;2024-03-08T02:30:47;10.60;;;9.50;;
9445;SDS011;4761;49.490;10.908;2024-03-08T02:33:13;11.10;;;9.37;;
9445;SDS011;4761;49.490;10.908;2024-03-08T02:35:41;11.77;;;10.43;;
9445;SDS011;4761;49.490;10.908;2024-03-08T02:38:10;10.67;;;9.37;;
9445;SDS011;4761;49.490;10.908;2024-03-08T02:40:36;10.80;;;9.70;;
9445;SDS011;4761;49.490;10.908;2024-03-08T02:43:02;11.90;;;9.40;;
9445;SDS011;4761;49.490;10.908;2024-03-08T02:45:29;10.77;;;9.07;;
9445;SDS011;4761;49.490;10.908;2024-03-08T02:47:55;10.13;;;9.10;;
9445;SDS011;4761;49.490;10.908;2024-03-08T02:50:21;10.10;;;9.03;;
9445;SDS011;4761;49.490;10.908;2024-03-08T02:52:47;11.30;;;9.97;;
9445;SDS011;4761;49.490;10.908;2024-03-08T02:55:13;11.37;;;10.17;;
9445;SDS011;4761;49.490;10.908;2024-03-08T02:57:41;10.50;;;9.40;;
9445;SDS011;4761;49.490;10.908;2024-03-08T03:00:07;12.30;;;9.97;;
9445;SDS011;4761;49.490;10.908;2024-03-08T03:02:34;11.67;;;10.17;;
9445;SDS011;4761;49.490;10.908;2024-03-08T03:05:00;10.80;;;9.70;;
9445;SDS011;4761;49.490;10.908;2024-03-08T03:07:30;10.73;;;9.63;;
9445;SDS011;4761;49.490;10.908;2024-03-08T03:09:56;11.10;;;9.50;;
9445;SDS011;4761;49.490;10.908;2024-03-08T03:12:21;10.90;;;9.07;;
9445;SDS011;4761;49.490;10.908;2024-03-08T03:14:47;12.03;;;9.63;;
9445;SDS011;4761;49.490;10.908;2024-03-08T03:17:13;9.93;;;8.93;;
9445;SDS011;4761;49.490;10.908;2024-03-08T03:19:40;11.83;;;10.00;;
9445;SDS011;4761;49.490;10.908;2024-03-08T03:22:07;10.87;;;9.07;;
9445;SDS011;4761;49.490;10.908;2024-03-08T03:24:34;10.90;;;9.80;;
9445;SDS011;4761;49.490;10.908;2024-03-08T03:27:03;9.83;;;8.83;;
9445;SDS011;4761;49.490;10.908;2024-03-08T03:29:35;10.13;;;9.03;;
9445;SDS011;4761;49.490;10.908;2024-03-08T03:32:01;10.17;;;9.07;;
9445;SDS011;4761;49.490;10.908;2024-03-08T03:34:28;10.50;;;8.83;;
9445;SDS011;4761;49.490;10.908;2024-03-08T03:36:54;10.73;;;8.97;;
9445;SDS011;4761;49.490;10.908;2024-03-08T03:39:21;10.80;;;9.70;;
9445;SDS011;4761;49.490;10.908;2024-03-08T03:41:47;10.33;;;9.10;;
9445;SDS011;4761;49.490;10.908;2024-03-08T03:44:16;10.88;;;9.73;;
9445;SDS011;4761;49.490;10.908;2024-03-08T03:46:43;11.13;;;9.43;;
9445;SDS011;4761;49.490;10.908;2024-03-08T03:49:11;10.87;;;9.70;;
9445;SDS011;4761;49.490;10.908;2024-03-08T03:51:37;10.57;;;9.47;;
9445;SDS011;4761;49.490;10.908;2024-03-08T03:54:03;11.20;;;9.97;;
9445;SDS011;4761;49.490;10.908;2024-03-08T03:56:28;10.30;;;9.27;;
9445;SDS011;4761;49.490;10.908;2024-03-08T03:58:55;10.57;;;9.50;;
9445;SDS011;4761;49.490;10.908;2024-03-08T04:01:21;10.47;;;9.37;;
9445;SDS011;4761;49.490;10.908;2024-03-08T04:03:47;12.03;;;9.90;;
9445;SDS011;4761;49.490;10.908;2024-03-08T04:06:12;12.23;;;9.27;;
9445;SDS011;4761;49.490;10.908;2024-03-08T04:08:39;10.17;;;9.17;;
9445;SDS011;4761;49.490;10.908;2024-03-08T04:11:05;10.57;;;9.47;;
9445;SDS011;4761;49.490;10.908;2024-03-08T04:13:30;10.57;;;9.40;;
9445;SDS011;4761;49.490;10.908;2024-03-08T04:15:56;10.70;;;9.60;;
9445;SDS011;4761;49.490;10.908;2024-03-08T04:18:21;10.63;;;9.53;;
9445;SDS011;4761;49.490;10.908;2024-03-08T04:20:47;9.93;;;8.93;;
9445;SDS011;4761;49.490;10.908;2024-03-08T04:23:12;10.77;;;9.67;;
9445;SDS011;4761;49.490;10.908;2024-03-08T04:25:38;10.27;;;9.20;;
9445;SDS011;4761;49.490;10.908;2024-03-08T04:28:03;10.90;;;9.47;;
9445;SDS011;4761;49.490;10.908;2024-03-08T04:30:29;11.07;;;9.87;;
9445;SDS011;4761;49.490;10.908;2024-03-08T04:32:55;10.03;;;9.03;;
9445;SDS011;4761;49.490;10.908;2024-03-08T04:35:20;11.17;;;9.43;;
9445;SDS011;4761;49.490;10.908;2024-03-08T04:37:46;11.03;;;9.90;;
9445;SDS011;4761;49.490;10.908;2024-03-08T04:40:12;10.40;;;9.40;;
9445;SDS011;4761;49.490;10.908;2024-03-08T04:42:37;11.33;;;9.90;;
9445;SDS011;4761;49.490;10.908;2024-03-08T04:45:05;11.37;;;9.83;;
9445;SDS011;4761;49.490;10.908;2024-03-08T04:47:33;10.50;;;9.40;;
9445;SDS011;4761;49.490;10.908;2024-03-08T04:49:58;10.50;;;9.37;;
9445;SDS011;4761;49.490;10.908;2024-03-08T04:52:24;11.57;;;10.38;;
9445;SDS011;4761;49.490;10.908;2024-03-08T04:54:51;10.30;;;9.23;;
9445;SDS011;4761;49.490;10.908;2024-03-08T04:57:17;11.60;;;9.27;;
9445;SDS011;4761;49.490;10.908;2024-03-08T04:59:43;11.20;;;9.77;;
9445;SDS011;4761;49.490;10.908;2024-03-08T05:02:08;10.30;;;9.30;;
9445;SDS011;4761;49.490;10.908;2024-03-08T05:04:34;11.10;;;10.00;;
9445;SDS011;4761;49.490;10.908;2024-03-08T05:07:00;11.00;;;9.90;;
9445;SDS011;4761;49.490;10.908;2024-03-08T05:09:29;10.80;;;9.70;;
9445;SDS011;4761;49.490;10.908;2024-03-08T05:11:56;10.50;;;9.50;;
9445;SDS011;4761;49.490;10.908;2024-03-08T05:14:24;10.50;;;9.50;;
9445;SDS011;4761;49.490;10.908;2024-03-08T05:16:50;10.77;;;9.67;;
9445;SDS011;4761;49.490;10.908;2024-03-08T05:19:16;10.97;;;9.87;;
9445;SDS011;4761;49.490;10.908;2024-03-08T05:21:46;10.70;;;9.60;;
9445;SDS011;4761;49.490;10.908;2024-03-08T05:24:13;11.03;;;9.93;;
9445;SDS011;4761;49.490;10.908;2024-03-08T05:26:42;11.75;;;10.65;;
9445;SDS011;4761;49.490;10.908;2024-03-08T05:29:08;11.53;;;10.10;;
9445;SDS011;4761;49.490;10.908;2024-03-08T05:34:13;11.90;;;10.67;;
9445;SDS011;4761;49.490;10.908;2024-03-08T05:36:39;10.87;;;9.77;;
9445;SDS011;4761;49.490;10.908;2024-03-08T05:39:05;11.77;;;10.40;;
9445;SDS011;4761;49.490;10.908;2024-03-08T05:41:32;11.23;;;10.03;;
9445;SDS011;4761;49.490;10.908;2024-03-08T05:43:57;10.63;;;9.57;;
9445;SDS011;4761;49.490;10.908;2024-03-08T05:46:23;11.17;;;9.87;;
9445;SDS011;4761;49.490;10.908;2024-03-08T05:48:48;11.70;;;10.50;;
9445;SDS011;4761;49.490;10.908;2024-03-08T05:51:14;10.83;;;9.73;;
9445;SDS011;4761;49.490;10.908;2024-03-08T05:53:40;11.23;;;10.13;;
9445;SDS011;4761;49.490;10.908;2024-03-08T05:56:05;12.03;;;10.73;;
9445;SDS011;4761;49.490;10.908;2024-03-08T05:58:31;11.23;;;10.13;;
9445;SDS011;4761;49.490;10.908;2024-03-08T06:00:56;11.50;;;10.20;;
9445;SDS011;4761;49.490;10.908;2024-03-08T06:03:22;11.47;;;10.27;;
9445;SDS011;4761;49.490;10.908;2024-03-08T06:05:48;11.90;;;10.70;;
9445;SDS011;4761;49.490;10.908;2024-03-08T06:08:14;12.23;;;11.00;;
9445;SDS011;4761;49.490;10.908;2024-03-08T06:10:40;11.00;;;9.90;;
9445;SDS011;4761;49.490;10.908;2024-03-08T06:13:06;11.80;;;10.70;;
9445;SDS011;4761;49.490;10.908;2024-03-08T06:15:31;13.00;;;11.40;;
9445;SDS011;4761;49.490;10.908;2024-03-08T06:17:57;12.20;;;10.83;;
9445;SDS011;4761;49.490;10.908;2024-03-08T06:20:23;12.47;;;11.17;;
9445;SDS011;4761;49.490;10.908;2024-03-08T06:22:51;10.93;;;9.83;;
9445;SDS011;4761;49.490;10.908;2024-03-08T06:25:17;12.43;;;11.13;;
9445;SDS011;4761;49.490;10.908;2024-03-08T06:27:43;13.47;;;12.07;;
9445;SDS011;4761;49.490;10.908;2024-03-08T06:30:09;13.10;;;11.80;;
9445;SDS011;4761;49.490;10.908;2024-03-08T06:32:36;12.10;;;10.80;;
9445;SDS011;4761;49.490;10.908;2024-03-08T06:35:02;12.33;;;11.03;;
9445;SDS011;4761;49.490;10.908;2024-03-08T06:37:32;12.80;;;11.33;;
9445;SDS011;4761;49.490;10.908;2024-03-08T06:39:58;12.43;;;11.23;;
9445;SDS011;4761;49.490;10.908;2024-03-08T06:42:25;12.00;;;10.80;;
9445;SDS011;4761;49.490;10.908;2024-03-08T06:44:52;12.37;;;11.17;;
9445;SDS011;4761;49.490;10.908;2024-03-08T06:47:20;12.07;;;10.87;;
9445;SDS011;4761;49.490;10.908;2024-03-08T06:49:46;12.23;;;10.97;;
9445;SDS011;4761;49.490;10.908;2024-03-08T06:52:11;13.00;;;11.53;;
9445;SDS011;4761;49.490;10.908;2024-03-08T06:54:37;12.53;;;11.23;;
9445;SDS011;4761;49.490;10.908;2024-03-08T06:57:03;13.37;;;12.07;;
9445;SDS011;4761;49.490;10.908;2024-03-08T06:59:30;12.60;;;11.30;;
9445;SDS011;4761;49.490;10.908;2024-03-08T07:02:00;12.67;;;11.37;;
9445;SDS011;4761;49.490;10.908;2024-03-08T07:04:26;13.47;;;11.43;;
9445;SDS011;4761;49.490;10.908;2024-03-08T07:06:54;13.20;;;11.80;;
9445;SDS011;4761;49.490;10.908;2024-03-08T07:09:20;12.50;;;11.20;;
9445;SDS011;4761;49.490;10.908;2024-03-08T07:11:46;11.30;;;10.10;;
9445;SDS011;4761;49.490;10.908;2024-03-08T07:16:47;12.83;;;11.23;;
9445;SDS011;4761;49.490;10.908;2024-03-08T07:19:13;12.90;;;11.47;;
9445;SDS011;4761;49.490;10.908;2024-03-08T07:21:38;13.20;;;11.80;;
9445;SDS011;4761;49.490;10.908;2024-03-08T07:24:04;13.27;;;11.93;;
9445;SDS011;4761;49.490;10.908;2024-03-08T07:26:50;14.83;;;12.07;;
9445;SDS011;4761;49.490;10.908;2024-03-08T07:29:17;13.47;;;12.07;;
9445;SDS011;4761;49.490;10.908;2024-03-08T07:31:42;13.43;;;11.83;;
9445;SDS011;4761;49.490;10.908;2024-03-08T07:34:27;13.27;;;11.87;;
9445;SDS011;4761;49.490;10.908;2024-03-08T07:36:56;14.33;;;11.97;;
9445;SDS011;4761;49.490;10.908;2024-03-08T07:39:22;13.70;;;12.20;;
9445;SDS011;4761;49.490;10.908;2024-03-08T07:41:48;13.57;;;12.10;;
9445;SDS011;4761;49.490;10.908;2024-03-08T07:44:14;13.73;;;12.00;;
9445;SDS011;4761;49.490;10.908;2024-03-08T07:46:40;14.83;;;12.27;;
9445;SDS011;4761;49.490;10.908;2024-03-08T07:49:06;15.00;;;12.57;;
9445;SDS011;4761;49.490;10.908;2024-03-08T07:51:35;12.60;;;11.30;;
9445;SDS011;4761;49.490;10.908;2024-03-08T07:54:02;13.90;;;11.70;;
9445;SDS011;4761;49.490;10.908;2024-03-08T07:56:29;14.88;;;12.73;;
9445;SDS011;4761;49.490;10.908;2024-03-08T07:58:55;12.70;;;11.40;;
9445;SDS011;4761;49.490;10.908;2024-03-08T08:01:21;13.17;;;11.70;;
9445;SDS011;4761;49.490;10.908;2024-03-08T08:03:46;13.03;;;11.63;;
9445;SDS011;4761;49.490;10.908;2024-03-08T08:06:15;12.90;;;11.60;;
9445;SDS011;4761;49.490;10.908;2024-03-08T08:08:43;12.43;;;11.13;;
9445;SDS011;4761;49.490;10.908;2024-03-08T08:11:09;13.83;;;12.33;;
9445;SDS011;4761;49.490;10.908;2024-03-08T08:13:40;13.43;;;11.73;;
9445;SDS011;4761;49.490;10.908;2024-03-08T08:16:08;13.07;;;11.60;;
9445;SDS011;4761;49.490;10.908;2024-03-08T08:18:34;13.83;;;11.97;;
9445;SDS011;4761;49.490;10.908;2024-03-08T08:21:00;13.33;;;11.97;;
9445;SDS011;4761;49.490;10.908;2024-03-08T08:23:26;13.47;;;11.77;;
9445;SDS011;4761;49.490;10.908;2024-03-08T08:25:51;13.10;;;11.63;;
9445;SDS011;4761;49.490;10.908;2024-03-08T08:28:17;13.80;;;12.13;;
9445;SDS011;4761;49.490;10.908;2024-03-08T08:30:43;13.73;;;12.17;;
9445;SDS011;4761;49.490;10.908;2024-03-08T08:33:09;13.70;;;12.13;;
9445;SDS011;4761;49.490;10.908;2024-03-08T08:35:36;12.40;;;11.20;;
9445;SDS011;4761;49.490;10.908;2024-03-08T08:38:28;12.27;;;10.97;;
9445;SDS011;4761;49.490;10.908;2024-03-08T08:40:54;13.17;;;11.87;;
9445;SDS011;4761;49.490;10.908;2024-03-08T08:43:19;13.17;;;11.53;;
9445;SDS011;4761;49.490;10.908;2024-03-08T08:45:49;12.40;;;11.07;;
9445;SDS011;4761;49.490;10.908;2024-03-08T08:48:15;12.83;;;11.53;;
9445;SDS011;4761;49.490;10.908;2024-03-08T08:50:41;13.10;;;11.20;;
9445;SDS011;4761;49.490;10.908;2024-03-08T08:53:06;14.50;;;11.53;;
9445;SDS011;4761;49.490;10.908;2024-03-08T08:55:33;12.97;;;11.63;;
9445;SDS011;4761;49.490;10.908;2024-03-08T08:58:00;12.80;;;11.40;;
9445;SDS011;4761;49.490;10.908;2024-03-08T09:00:28;13.60;;;11.53;;
9445;SDS011;4761;49.490;10.908;2024-03-08T09:02:55;14.00;;;11.77;;
9445;SDS011;4761;49.490;10.908;2024-03-08T09:05:22;12.50;;;11.03;;
9445;SDS011;4761;49.490;10.908;2024-03-08T09:07:49;12.50;;;11.20;;
9445;SDS011;4761;49.490;10.908;2024-03-08T09:10:15;14.53;;;11.27;;
9445;SDS011;4761;49.490;10.908;2024-03-08T09:12:40;13.17;;;11.80;;
9445;SDS011;4761;49.490;10.908;2024-03-08T09:15:06;12.60;;;11.30;;
9445;SDS011;4761;49.490;10.908;2024-03-08T09:17:36;12.63;;;11.23;;
9445;SDS011;4761;49.490;10.908;2024-03-08T09:20:05;13.47;;;11.50;;
9445;SDS011;4761;49.490;10.908;2024-03-08T09:22:35;12.67;;;10.53;;
9445;SDS011;4761;49.490;10.908;2024-03-08T09:25:00;12.77;;;11.40;;
9445;SDS011;4761;49.490;10.908;2024-03-08T09:27:27;12.90;;;10.13;;
9445;SDS011;4761;49.490;10.908;2024-03-08T09:29:53;16.93;;;10.57;;
9445;SDS011;4761;49.490;10.908;2024-03-08T09:32:19;12.37;;;9.90;;
9445;SDS011;4761;49.490;10.908;2024-03-08T09:34:45;10.80;;;9.50;;
9445;SDS011;4761;49.490;10.908;2024-03-08T09:37:10;15.40;;;10.40;;
9445;SDS011;4761;49.490;10.908;2024-03-08T09:39:36;15.13;;;10.13;;
9445;SDS011;4761;49.490;10.908;2024-03-08T09:42:02;12.40;;;9.77;;
9445;SDS011;4761;49.490;10.908;2024-03-08T09:44:27;19.37;;;11.20;;
9445;SDS011;4761;49.490;10.908;2024-03-08T09:46:56;11.40;;;9.50;;
9445;SDS011;4761;49.490;10.908;2024-03-08T09:49:23;13.07;;;9.33;;
9445;SDS011;4761;49.490;10.908;2024-03-08T09:51:49;11.67;;;9.37;;
9445;SDS011;4761;49.490;10.908;2024-03-08T09:54:16;11.97;;;9.73;;
9445;SDS011;4761;49.490;10.908;2024-03-08T09:56:42;12.53;;;9.10;;
9445;SDS011;4761;49.490;10.908;2024-03-08T09:59:09;15.40;;;9.17;;
9445;SDS011;4761;49.490;10.908;2024-03-08T10:01:50;10.90;;;9.23;;
9445;SDS011;4761;49.490;10.908;2024-03-08T10:04:17;11.10;;;8.90;;
9445;SDS011;4761;49.490;10.908;2024-03-08T10:06:43;10.27;;;9.00;;
9445;SDS011;4761;49.490;10.908;2024-03-08T10:09:09;11.67;;;8.80;;
9445;SDS011;4761;49.490;10.908;2024-03-08T10:11:35;10.80;;;9.10;;
9445;SDS011;4761;49.490;10.908;2024-03-08T10:14:01;11.77;;;9.47;;
9445;SDS011;4761;49.490;10.908;2024-03-08T10:16:29;11.30;;;9.40;;
9445;SDS011;4761;49.490;10.908;2024-03-08T10:18:58;9.93;;;8.50;;
9445;SDS011;4761;49.490;10.908;2024-03-08T10:21:25;12.43;;;9.00;;
9445;SDS011;4761;49.490;10.908;2024-03-08T10:23:51;9.97;;;8.73;;
9445;SDS011;4761;49.490;10.908;2024-03-08T10:26:16;9.60;;;8.50;;
9445;SDS011;4761;49.490;10.908;2024-03-08T10:28:44;10.43;;;8.80;;
9445;SDS011;4761;49.490;10.908;2024-03-08T10:31:12;11.37;;;7.90;;
9445;SDS011;4761;49.490;10.908;2024-03-08T10:33:40;9.50;;;8.50;;
9445;SDS011;4761;49.490;10.908;2024-03-08T10:36:09;9.13;;;7.53;;
9445;SDS011;4761;49.490;10.908;2024-03-08T10:38:37;9.50;;;8.50;;
9445;SDS011;4761;49.490;10.908;2024-03-08T10:41:07;10.40;;;8.50;;
9445;SDS011;4761;49.490;10.908;2024-03-08T10:43:42;8.67;;;7.77;;
9445;SDS011;4761;49.490;10.908;2024-03-08T10:49:18;10.13;;;7.97;;
9445;SDS011;4761;49.490;10.908;2024-03-08T10:51:50;10.80;;;7.83;;
9445;SDS011;4761;49.490;10.908;2024-03-08T10:54:17;9.83;;;7.43;;
9445;SDS011;4761;49.490;10.908;2024-03-08T10:56:44;9.43;;;7.83;;
9445;SDS011;4761;49.490;10.908;2024-03-08T10:59:10;9.03;;;7.53;;
9445;SDS011;4761;49.490;10.908;2024-03-08T11:01:36;8.20;;;7.37;;
9445;SDS011;4761;49.490;10.908;2024-03-08T11:04:05;7.80;;;6.97;;
9445;SDS011;4761;49.490;10.908;2024-03-08T11:09:03;8.63;;;7.30;;
9445;SDS011;4761;49.490;10.908;2024-03-08T11:11:38;10.55;;;8.15;;
9445;SDS011;4761;49.490;10.908;2024-03-08T11:14:07;8.70;;;7.57;;
9445;SDS011;4761;49.490;10.908;2024-03-08T11:17:08;8.10;;;7.03;;
9445;SDS011;4761;49.490;10.908;2024-03-08T11:19:34;7.47;;;6.67;;
9445;SDS011;4761;49.490;10.908;2024-03-08T11:22:00;7.40;;;6.60;;
9445;SDS011;4761;49.490;10.908;2024-03-08T11:24:27;7.07;;;6.37;;
9445;SDS011;4761;49.490;10.908;2024-03-08T11:26:59;7.63;;;6.63;;
9445;SDS011;4761;49.490;10.908;2024-03-08T11:34:35;7.00;;;6.30;;
9445;SDS011;4761;49.490;10.908;2024-03-08T11:37:05;7.83;;;6.80;;
9445;SDS011;4761;49.490;10.908;2024-03-08T11:39:37;6.83;;;6.13;;
9445;SDS011;4761;49.490;10.908;2024-03-08T11:42:04;7.00;;;6.27;;
9445;SDS011;4761;49.490;10.908;2024-03-08T11:44:30;7.30;;;5.80;;
9445;SDS011;4761;49.490;10.908;2024-03-08T11:46:56;6.67;;;5.97;;
9445;SDS011;4761;49.490;10.908;2024-03-08T11:49:22;6.43;;;5.83;;
9445;SDS011;4761;49.490;10.908;2024-03-08T11:51:50;6.53;;;5.83;;
9445;SDS011;4761;49.490;10.908;2024-03-08T11:54:17;6.33;;;5.73;;
9445;SDS011;4761;49.490;10.908;2024-03-08T11:56:44;6.23;;;5.60;;
9445;SDS011;4761;49.490;10.908;2024-03-08T11:59:12;6.50;;;5.33;;
9445;SDS011;4761;49.490;10.908;2024-03-08T12:01:38;7.32;;;5.93;;
9445;SDS011;4761;49.490;10.908;2024-03-08T12:04:04;7.10;;;6.40;;
9445;SDS011;4761;49.490;10.908;2024-03-08T12:06:37;5.73;;;5.03;;
9445;SDS011;4761;49.490;10.908;2024-03-08T12:09:10;5.83;;;5.23;;
9445;SDS011;4761;49.490;10.908;2024-03-08T12:11:36;6.50;;;5.80;;
9445;SDS011;4761;49.490;10.908;2024-03-08T12:14:02;6.30;;;5.70;;
9445;SDS011;4761;49.490;10.908;2024-03-08T12:16:28;5.90;;;5.30;;
9445;SDS011;4761;49.490;10.908;2024-03-08T12:18:54;6.03;;;5.43;;
9445;SDS011;4761;49.490;10.908;2024-03-08T12:21:20;6.13;;;5.30;;
9445;SDS011;4761;49.490;10.908;2024-03-08T12:23:50;5.80;;;5.27;;
9445;SDS011;4761;49.490;10.908;2024-03-08T12:26:27;6.00;;;5.00;;
9445;SDS011;4761;49.490;10.908;2024-03-08T12:28:53;6.87;;;5.03;;
9445;SDS011;4761;49.490;10.908;2024-03-08T12:31:38;6.57;;;5.50;;
9445;SDS011;4761;49.490;10.908;2024-03-08T12:34:04;6.20;;;5.60;;
9445;SDS011;4761;49.490;10.908;2024-03-08T12:36:30;6.37;;;5.43;;
9445;SDS011;4761;49.490;10.908;2024-03-08T12:38:55;6.10;;;5.20;;
9445;SDS011;4761;49.490;10.908;2024-03-08T12:41:22;5.70;;;5.07;;
9445;SDS011;4761;49.490;10.908;2024-03-08T12:43:47;6.17;;;5.27;;
9445;SDS011;4761;49.490;10.908;2024-03-08T12:46:14;5.63;;;5.03;;
9445;SDS011;4761;49.490;10.908;2024-03-08T12:48:45;5.87;;;5.27;;
9445;SDS011;4761;49.490;10.908;2024-03-08T12:51:15;6.40;;;5.07;;
9445;SDS011;4761;49.490;10.908;2024-03-08T12:53:43;5.60;;;5.00;;
9445;SDS011;4761;49.490;10.908;2024-03-08T12:56:12;6.23;;;5.03;;
9445;SDS011;4761;49.490;10.908;2024-03-08T12:58:39;5.90;;;5.10;;
9445;SDS011;4761;49.490;10.908;2024-03-08T13:01:05;5.97;;;5.17;;
9445;SDS011;4761;49.490;10.908;2024-03-08T13:03:35;5.43;;;4.93;;
9445;SDS011;4761;49.490;10.908;2024-03-08T13:06:01;5.73;;;5.20;;
9445;SDS011;4761;49.490;10.908;2024-03-08T13:08:28;8.60;;;5.53;;
9445;SDS011;4761;49.490;10.908;2024-03-08T13:10:54;5.63;;;5.03;;
9445;SDS011;4761;49.490;10.908;2024-03-08T13:13:20;5.80;;;5.20;;
9445;SDS011;4761;49.490;10.908;2024-03-08T13:15:45;5.57;;;5.07;;
9445;SDS011;4761;49.490;10.908;2024-03-08T13:18:11;5.93;;;5.07;;
9445;SDS011;4761;49.490;10.908;2024-03-08T13:20:37;6.73;;;5.30;;
9445;SDS011;4761;49.490;10.908;2024-03-08T13:23:06;5.50;;;5.00;;
9445;SDS011;4761;49.490;10.908;2024-03-08T13:25:33;5.70;;;5.10;;
9445;SDS011;4761;49.490;10.908;2024-03-08T13:27:59;5.23;;;4.73;;
9445;SDS011;4761;49.490;10.908;2024-03-08T13:30:25;5.80;;;5.00;;
9445;SDS011;4761;49.490;10.908;2024-03-08T13:32:52;5.50;;;5.00;;
9445;SDS011;4761;49.490;10.908;2024-03-08T13:35:18;5.43;;;4.77;;
9445;SDS011;4761;49.490;10.908;2024-03-08T13:37:49;5.27;;;4.77;;
9445;SDS011;4761;49.490;10.908;2024-03-08T13:40:16;5.07;;;4.53;;
9445;SDS011;4761;49.490;10.908;2024-03-08T13:42:44;5.00;;;4.37;;
9445;SDS011;4761;49.490;10.908;2024-03-08T13:45:16;5.57;;;5.00;;
9445;SDS011;4761;49.490;10.908;2024-03-08T13:47:48;4.80;;;4.40;;
9445;SDS011;4761;49.490;10.908;2024-03-08T13:50:18;6.73;;;4.30;;
9445;SDS011;4761;49.490;10.908;2024-03-08T13:52:47;5.40;;;4.80;;
9445;SDS011;4761;49.490;10.908;2024-03-08T13:55:16;5.53;;;5.03;;
9445;SDS011;4761;49.490;10.908;2024-03-08T13:57:45;5.63;;;5.03;;
9445;SDS011;4761;49.490;10.908;2024-03-08T14:00:12;5.20;;;4.70;;
9445;SDS011;4761;49.490;10.908;2024-03-08T14:02:38;5.77;;;4.67;;
9445;SDS011;4761;49.490;10.908;2024-03-08T14:05:06;5.17;;;4.30;;
9445;SDS011;4761;49.490;10.908;2024-03-08T14:07:33;5.10;;;4.60;;
9445;SDS011;4761;49.490;10.908;2024-03-08T14:09:59;5.27;;;4.73;;
9445;SDS011;4761;49.490;10.908;2024-03-08T14:12:25;5.13;;;4.63;;
9445;SDS011;4761;49.490;10.908;2024-03-08T14:14:51;5.77;;;4.90;;
9445;SDS011;4761;49.490;10.908;2024-03-08T14:17:20;5.50;;;5.00;;
9445;SDS011;4761;49.490;10.908;2024-03-08T14:19:46;5.67;;;5.03;;
9445;SDS011;4761;49.490;10.908;2024-03-08T14:22:11;7.30;;;5.03;;
9445;SDS011;4761;49.490;10.908;2024-03-08T14:24:39;5.30;;;4.80;;
9445;SDS011;4761;49.490;10.908;2024-03-08T14:27:07;5.33;;;4.60;;
9445;SDS011;4761;49.490;10.908;2024-03-08T14:29:34;5.63;;;5.00;;
9445;SDS011;4761;49.490;10.908;2024-03-08T14:32:00;6.10;;;5.30;;
9445;SDS011;4761;49.490;10.908;2024-03-08T14:34:26;5.50;;;4.90;;
9445;SDS011;4761;49.490;10.908;2024-03-08T14:36:54;6.50;;;5.60;;
9445;SDS011;4761;49.490;10.908;2024-03-08T14:39:20;6.00;;;5.30;;
9445;SDS011;4761;49.490;10.908;2024-03-08T14:41:49;6.30;;;5.40;;
9445;SDS011;4761;49.490;10.908;2024-03-08T14:44:18;6.00;;;5.40;;
9445;SDS011;4761;49.490;10.908;2024-03-08T14:46:44;5.83;;;5.23;;
9445;SDS011;4761;49.490;10.908;2024-03-08T14:49:10;5.40;;;4.90;;
9445;SDS011;4761;49.490;10.908;2024-03-08T14:51:36;6.40;;;5.30;;
9445;SDS011;4761;49.490;10.908;2024-03-08T14:54:01;6.30;;;5.40;;
9445;SDS011;4761;49.490;10.908;2024-03-08T14:56:31;6.00;;;5.40;;
9445;SDS011;4761;49.490;10.908;2024-03-08T14:58:57;6.10;;;5.43;;
9445;SDS011;4761;49.490;10.908;2024-03-08T15:01:24;6.87;;;5.40;;
9445;SDS011;4761;49.490;10.908;2024-03-08T15:03:53;5.47;;;4.90;;